Burton, Illinois
Current Conditions -  °F | °C
As of 12:54 AM on Friday 28 Nov 2014 (Local Time) from KUIN Reporting Station
Clear Clear  
Wind Chill:   Ceiling: Unl
Heat Index: 19°   Visibility: 10mi
Dew Point: 11°   Wind: 10mph
Humidity: 71%   Direction: 130°SE
Pressure: 30.34"   Gusts: NA
Location:  39.9317°N, 91.2953°W
Report Text: KUIN 280654Z AUTO 13009KT 10SM CLR M07/M12 A3034 RMK AO2 SLP285 T10721117
Loading
Personal Weather Stations






























Interactive Weather Map New forecast layout! Learn more

10-Day Weather Forecast

Advertisements
Track Severe Weather on mobile